createdAt,value
2023-05-14T00:01:26.168Z,101006.34
2023-05-14T00:04:28.968Z,101013.34
2023-05-14T00:07:31.757Z,101006.97
2023-05-14T00:10:34.167Z,101008.06
2023-05-14T00:13:36.920Z,101003.31
2023-05-14T00:16:39.376Z,100999.69
2023-05-14T00:19:42.863Z,101003.00
2023-05-14T00:22:45.458Z,101008.31
2023-05-14T00:25:48.436Z,101010.41
2023-05-14T00:28:50.996Z,101010.75
2023-05-14T00:31:53.864Z,101009.88
2023-05-14T00:34:56.267Z,101008.81
2023-05-14T00:37:58.905Z,101000.88
2023-05-14T00:41:01.348Z,101004.97
2023-05-14T00:44:04.044Z,101000.25
2023-05-14T00:47:07.351Z,100995.75
2023-05-14T00:50:11.293Z,101003.44
2023-05-14T00:53:14.109Z,101002.00
2023-05-14T00:56:17.184Z,100998.22
2023-05-14T00:59:19.869Z,100988.91
2023-05-14T01:02:22.382Z,100992.41
2023-05-14T01:05:48.894Z,100998.88
2023-05-14T01:09:19.035Z,100991.34
2023-05-14T01:12:34.723Z,100984.53
2023-05-14T01:15:39.559Z,100998.38
2023-05-14T01:18:44.150Z,101003.94
2023-05-14T01:21:47.039Z,100995.34
2023-05-14T01:24:49.639Z,100985.66
2023-05-14T01:28:18.749Z,100995.63
2023-05-14T01:31:27.984Z,100992.72
2023-05-14T01:34:31.715Z,100988.84
2023-05-14T01:37:36.610Z,100988.63
2023-05-14T01:40:39.765Z,100993.88
2023-05-14T01:43:42.548Z,100989.91
2023-05-14T01:46:45.306Z,100984.38
2023-05-14T01:49:48.069Z,100981.75
2023-05-14T01:52:53.536Z,100983.16
2023-05-14T01:55:56.994Z,100981.84
2023-05-14T01:58:59.399Z,100976.03
2023-05-14T02:02:02.311Z,100978.97
2023-05-14T02:05:07.018Z,100970.50
2023-05-14T02:08:09.803Z,100969.66
2023-05-14T02:11:12.542Z,100978.94
2023-05-14T02:14:15.383Z,100972.66
2023-05-14T02:17:18.114Z,100971.31
2023-05-14T02:20:20.621Z,100967.00
2023-05-14T02:23:34.043Z,100948.53
2023-05-14T02:26:40.860Z,100955.91
2023-05-14T02:29:43.483Z,100946.44
2023-05-14T02:32:46.414Z,100936.66
2023-05-14T02:35:48.914Z,100941.41
2023-05-14T02:38:51.590Z,100941.16
2023-05-14T02:41:54.797Z,100934.84
2023-05-14T02:44:57.251Z,100930.34
2023-05-14T02:47:59.996Z,100930.25
2023-05-14T02:51:02.772Z,100927.81
2023-05-14T02:54:05.737Z,100930.44
2023-05-14T02:57:08.755Z,100929.13
2023-05-14T03:00:12.334Z,100932.94
2023-05-14T03:03:15.489Z,100936.38
2023-05-14T03:06:18.367Z,100923.09
2023-05-14T03:09:21.270Z,100921.44
2023-05-14T03:12:24.133Z,100928.34
2023-05-14T03:15:26.670Z,100918.53
2023-05-14T03:18:30.725Z,100912.13
2023-05-14T03:21:33.437Z,100918.75
2023-05-14T03:24:39.308Z,100925.66
2023-05-14T03:27:42.087Z,100930.25
2023-05-14T03:30:44.952Z,100935.81
2023-05-14T03:33:47.791Z,100931.84
2023-05-14T03:36:50.442Z,100937.09
2023-05-14T03:39:53.334Z,100933.19
2023-05-14T03:42:56.182Z,100925.22
2023-05-14T03:45:58.848Z,100920.34
2023-05-14T03:49:01.790Z,100931.34
2023-05-14T03:52:04.552Z,100934.03
2023-05-14T03:55:07.459Z,100938.44
2023-05-14T03:58:14.575Z,100933.16
2023-05-14T04:01:17.221Z,100929.41
2023-05-14T04:04:19.917Z,100931.81
2023-05-14T04:07:22.597Z,100929.75
2023-05-14T04:10:25.597Z,100940.88
2023-05-14T04:13:29.310Z,100939.97
2023-05-14T04:16:31.872Z,100944.28
2023-05-14T04:19:34.755Z,100944.34
2023-05-14T04:22:38.690Z,100948.47
2023-05-14T04:25:41.381Z,100946.34
2023-05-14T04:28:44.081Z,100941.31
2023-05-14T04:31:47.037Z,100926.84
2023-05-14T04:34:49.774Z,100924.41
2023-05-14T04:37:52.318Z,100923.44
2023-05-14T04:40:54.956Z,100926.19
2023-05-14T04:43:58.985Z,100914.22
2023-05-14T04:47:02.080Z,100921.13
2023-05-14T04:50:05.023Z,100916.81
2023-05-14T04:53:07.524Z,100911.94
2023-05-14T04:56:10.868Z,100920.31
2023-05-14T04:59:13.772Z,100918.78
2023-05-14T05:02:16.150Z,100921.28
2023-05-14T05:05:19.028Z,100911.53
2023-05-14T05:08:21.466Z,100910.38
2023-05-14T05:11:24.231Z,100911.78
2023-05-14T05:14:27.067Z,100913.66
2023-05-14T05:17:29.904Z,100906.44
2023-05-14T05:20:32.816Z,100895.66
2023-05-14T05:23:35.243Z,100886.06
2023-05-14T05:26:37.906Z,100887.72
2023-05-14T05:29:40.902Z,100887.91
2023-05-14T05:32:43.995Z,100875.34
2023-05-14T05:35:48.199Z,100874.66
2023-05-14T05:38:50.700Z,100879.88
2023-05-14T05:41:54.439Z,100879.56
2023-05-14T05:44:57.156Z,100882.63
2023-05-14T05:47:59.687Z,100894.16
2023-05-14T05:51:02.509Z,100886.97
2023-05-14T05:54:05.011Z,100875.16
2023-05-14T05:57:08.016Z,100868.59
2023-05-14T06:00:14.213Z,100868.22
2023-05-14T06:03:16.801Z,100858.31
2023-05-14T06:06:19.650Z,100863.34
2023-05-14T06:09:22.043Z,100857.28
2023-05-14T06:12:24.790Z,100859.97
2023-05-14T06:15:27.467Z,100850.38
2023-05-14T06:18:29.924Z,100853.19
2023-05-14T06:21:32.630Z,100850.25
2023-05-14T06:24:35.359Z,100849.94
2023-05-14T06:27:38.076Z,100850.88
2023-05-14T06:30:40.753Z,100851.13
2023-05-14T06:33:43.332Z,100856.97
2023-05-14T06:36:46.094Z,100849.09
2023-05-14T06:39:50.516Z,100857.16
2023-05-14T06:42:53.178Z,100851.91
2023-05-14T06:45:56.063Z,100853.41
2023-05-14T06:48:59.696Z,100843.63
2023-05-14T06:52:03.648Z,100846.66
2023-05-14T06:55:06.521Z,100844.75
2023-05-14T06:58:09.747Z,100847.19
2023-05-14T07:01:12.769Z,100833.19
2023-05-14T07:04:15.466Z,100831.19
2023-05-14T07:07:20.741Z,100833.84
2023-05-14T07:10:23.706Z,100838.53
2023-05-14T07:13:28.645Z,100835.47
2023-05-14T07:16:31.658Z,100836.28
2023-05-14T07:19:34.182Z,100828.59
2023-05-14T07:22:37.026Z,100818.75
2023-05-14T07:25:40.837Z,100826.19
2023-05-14T07:28:43.630Z,100825.34
2023-05-14T07:31:46.579Z,100826.34
2023-05-14T07:34:49.542Z,100824.16
2023-05-14T07:37:52.635Z,100824.00
2023-05-14T07:40:55.128Z,100830.59
2023-05-14T07:43:57.808Z,100823.31
2023-05-14T07:47:00.548Z,100824.94
2023-05-14T07:50:03.674Z,100814.09
2023-05-14T07:53:06.569Z,100812.88
2023-05-14T07:56:09.015Z,100804.34
2023-05-14T07:59:11.603Z,100803.25
2023-05-14T08:02:16.070Z,100793.22
2023-05-14T08:05:18.663Z,100792.56
2023-05-14T08:08:21.737Z,100788.16
2023-05-14T08:11:24.385Z,100784.63
2023-05-14T08:14:27.330Z,100777.53
2023-05-14T08:17:30.240Z,100774.59
2023-05-14T08:20:32.813Z,100777.66
2023-05-14T08:23:35.799Z,100766.81
2023-05-14T08:26:38.988Z,100759.63
2023-05-14T08:29:41.780Z,100762.19
2023-05-14T08:32:44.250Z,100754.09
2023-05-14T08:35:47.070Z,100759.19
2023-05-14T08:38:50.467Z,100759.22
2023-05-14T08:41:53.786Z,100750.69
2023-05-14T08:45:05.816Z,100749.28
2023-05-14T08:48:13.494Z,100744.22
2023-05-14T08:51:16.105Z,100743.91
2023-05-14T08:54:22.561Z,100737.91
2023-05-14T08:57:26.564Z,100732.94
2023-05-14T09:00:29.823Z,100742.00
2023-05-14T09:03:32.785Z,100736.72
2023-05-14T09:06:37.835Z,100726.28
2023-05-14T09:09:40.818Z,100728.97
2023-05-14T09:12:43.257Z,100725.78
2023-05-14T09:15:48.057Z,100718.69
2023-05-14T09:18:51.447Z,100718.69
2023-05-14T09:21:58.326Z,100726.63
2023-05-14T09:25:06.676Z,100717.44
2023-05-14T09:28:09.679Z,100708.78
2023-05-14T09:31:12.418Z,100692.72
2023-05-14T09:34:30.680Z,100699.34
2023-05-14T09:37:36.716Z,100681.34
2023-05-14T09:40:39.375Z,100674.63
2023-05-14T09:43:42.001Z,100667.84
2023-05-14T09:46:45.699Z,100669.94
2023-05-14T09:49:49.234Z,100658.22
2023-05-14T09:52:51.658Z,100660.53
2023-05-14T09:55:54.289Z,100663.38
2023-05-14T09:58:56.829Z,100651.34
2023-05-14T10:01:59.956Z,100657.53
2023-05-14T10:05:06.019Z,100644.72
2023-05-14T10:08:35.629Z,100648.50
2023-05-14T10:11:42.826Z,100641.91
2023-05-14T10:14:49.827Z,100637.75
2023-05-14T10:17:56.837Z,100632.97
2023-05-14T10:21:10.457Z,100635.75
2023-05-14T10:24:13.337Z,100622.88
2023-05-14T10:27:17.463Z,100625.63
2023-05-14T10:30:23.268Z,100618.41
2023-05-14T10:33:26.204Z,100611.78
2023-05-14T10:36:29.047Z,100607.47
2023-05-14T10:39:51.856Z,100598.50
2023-05-14T10:42:59.144Z,100587.25
2023-05-14T10:46:02.790Z,100587.25
2023-05-14T10:49:05.397Z,100590.00
2023-05-14T10:52:09.487Z,100565.94
2023-05-14T10:55:16.933Z,100568.16
2023-05-14T10:58:19.597Z,100562.41
2023-05-14T11:01:24.148Z,100547.66
2023-05-14T11:04:27.830Z,100530.28
2023-05-14T11:07:35.999Z,100520.09
2023-05-14T11:10:39.430Z,100515.09
2023-05-14T11:13:42.944Z,100515.97
2023-05-14T11:16:47.161Z,100510.44
2023-05-14T11:19:51.161Z,100515.41
2023-05-14T11:22:53.760Z,100512.31
2023-05-14T11:25:57.125Z,100505.72
2023-05-14T11:29:00.080Z,100501.84
2023-05-14T11:32:06.049Z,100493.47
2023-05-14T11:35:08.914Z,100490.47
2023-05-14T11:38:21.278Z,100491.63
2023-05-14T11:41:24.070Z,100485.84
2023-05-14T11:44:26.698Z,100495.53
2023-05-14T11:47:29.960Z,100490.44
2023-05-14T11:50:36.670Z,100506.25
2023-05-14T11:53:39.385Z,100493.78
2023-05-14T11:56:41.941Z,100491.22
2023-05-14T11:59:45.347Z,100482.97
2023-05-14T12:02:49.813Z,100480.97
2023-05-14T12:05:59.921Z,100477.69
2023-05-14T12:09:05.499Z,100477.91
2023-05-14T12:12:10.118Z,100483.09
2023-05-14T12:15:13.801Z,100473.28
2023-05-14T12:18:24.552Z,100470.22
2023-05-14T12:21:29.090Z,100458.72
2023-05-14T12:24:31.723Z,100457.25
2023-05-14T12:27:37.811Z,100459.59
2023-05-14T12:30:41.322Z,100454.56
2023-05-14T12:33:43.690Z,100441.00
2023-05-14T12:36:46.254Z,100442.91
2023-05-14T12:39:48.830Z,100439.81
2023-05-14T12:42:51.344Z,100443.69
2023-05-14T12:45:53.946Z,100454.25
2023-05-14T12:48:57.110Z,100456.41
2023-05-14T12:52:17.413Z,100452.97
2023-05-14T12:55:22.522Z,100445.97
2023-05-14T12:58:24.945Z,100443.16
2023-05-14T13:01:27.590Z,100443.56
2023-05-14T13:04:30.069Z,100431.03
2023-05-14T13:07:32.903Z,100430.41
2023-05-14T13:10:36.099Z,100432.00
2023-05-14T13:13:38.509Z,100432.47
2023-05-14T13:16:41.139Z,100420.41
2023-05-14T13:19:43.614Z,100429.53
2023-05-14T13:22:46.490Z,100423.28
2023-05-14T13:25:50.019Z,100412.84
2023-05-14T13:28:52.918Z,100408.38
2023-05-14T13:31:55.543Z,100412.03
2023-05-14T13:34:58.008Z,100399.41
2023-05-14T13:38:00.762Z,100400.66
2023-05-14T13:41:03.845Z,100402.06
2023-05-14T13:44:09.435Z,100389.50
2023-05-14T13:47:12.180Z,100398.38
2023-05-14T13:50:14.822Z,100398.38
2023-05-14T13:53:18.021Z,100400.53
2023-05-14T13:56:21.495Z,100385.56
2023-05-14T13:59:24.051Z,100391.59
2023-05-14T14:02:26.550Z,100392.16
2023-05-14T14:05:29.709Z,100377.59
2023-05-14T14:08:32.409Z,100374.66
2023-05-14T14:11:35.412Z,100386.06
2023-05-14T14:14:37.743Z,100384.22
2023-05-14T14:17:41.861Z,100380.84
2023-05-14T14:20:44.344Z,100382.28
2023-05-14T14:23:47.387Z,100373.91
2023-05-14T14:26:49.925Z,100375.69
2023-05-14T14:29:52.381Z,100374.31
2023-05-14T14:32:55.096Z,100376.00
2023-05-14T14:35:57.588Z,100380.53
2023-05-14T14:39:00.158Z,100376.63
2023-05-14T14:42:02.842Z,100386.69
2023-05-14T14:45:06.115Z,100379.44
2023-05-14T14:48:33.940Z,100375.72
2023-05-14T14:51:36.655Z,100377.47
2023-05-14T14:54:39.161Z,100382.84
2023-05-14T14:57:41.807Z,100378.03
2023-05-14T15:00:44.393Z,100383.91
2023-05-14T15:03:48.430Z,100383.00
2023-05-14T15:06:50.830Z,100382.03
2023-05-14T15:09:53.400Z,100390.00
2023-05-14T15:12:59.023Z,100382.38
2023-05-14T15:16:01.541Z,100383.22
2023-05-14T15:19:04.185Z,100389.13
2023-05-14T15:22:06.713Z,100384.25
2023-05-14T15:25:09.628Z,100378.25
2023-05-14T15:28:12.195Z,100386.06
2023-05-14T15:31:14.658Z,100385.88
2023-05-14T15:34:17.252Z,100378.41
2023-05-14T15:37:19.650Z,100383.81
2023-05-14T15:40:22.371Z,100372.63
2023-05-14T15:43:25.144Z,100383.88
2023-05-14T15:46:27.707Z,100377.94
2023-05-14T15:49:30.368Z,100372.75
2023-05-14T15:52:32.838Z,100362.38
2023-05-14T15:55:35.632Z,100360.97
2023-05-14T15:58:38.374Z,100372.47
2023-05-14T16:01:40.951Z,100373.47
2023-05-14T16:04:45.282Z,100370.91
2023-05-14T16:07:47.777Z,100372.28
2023-05-14T16:10:50.272Z,100364.13
2023-05-14T16:13:53.015Z,100354.09
2023-05-14T16:16:55.491Z,100348.69
2023-05-14T16:19:59.445Z,100348.41
2023-05-14T16:23:01.885Z,100352.84
2023-05-14T16:26:05.740Z,100356.81
2023-05-14T16:29:08.437Z,100360.09
2023-05-14T16:32:10.967Z,100358.75
2023-05-14T16:35:13.867Z,100346.69
2023-05-14T16:38:16.376Z,100361.44
2023-05-14T16:41:18.917Z,100357.06
2023-05-14T16:44:23.217Z,100363.16
2023-05-14T16:47:38.965Z,100346.44
2023-05-14T16:50:41.574Z,100327.50
2023-05-14T16:53:44.073Z,100331.63
2023-05-14T16:56:49.241Z,100318.31
2023-05-14T16:59:52.260Z,100314.78
2023-05-14T17:02:54.779Z,100295.84
2023-05-14T17:05:57.522Z,100289.03
2023-05-14T17:09:00.037Z,100286.69
2023-05-14T17:12:02.854Z,100275.50
2023-05-14T17:15:07.312Z,100271.97
2023-05-14T17:18:12.068Z,100280.34
2023-05-14T17:21:15.212Z,100278.78
2023-05-14T17:24:17.677Z,100279.78
2023-05-14T17:27:20.809Z,100284.81
2023-05-14T17:30:23.475Z,100295.75
2023-05-14T17:33:26.022Z,100296.88
2023-05-14T17:36:28.724Z,100305.25
2023-05-14T17:39:31.234Z,100300.22
2023-05-14T17:42:33.867Z,100298.00
2023-05-14T17:45:46.264Z,100297.78
2023-05-14T17:48:56.646Z,100286.75
2023-05-14T17:51:59.248Z,100300.03
2023-05-14T17:55:01.659Z,100286.50
2023-05-14T17:58:04.316Z,100285.28
2023-05-14T18:01:06.917Z,100293.22
2023-05-14T18:04:10.075Z,100284.59
2023-05-14T18:07:12.692Z,100284.38
2023-05-14T18:10:15.123Z,100284.50
2023-05-14T18:13:18.294Z,100284.25
2023-05-14T18:16:21.033Z,100284.56
2023-05-14T18:19:25.650Z,100281.22
2023-05-14T18:22:28.481Z,100275.00
2023-05-14T18:25:31.449Z,100281.16
2023-05-14T18:28:34.231Z,100276.13
2023-05-14T18:31:36.884Z,100279.25
2023-05-14T18:34:39.288Z,100276.13
2023-05-14T18:37:41.925Z,100278.47
2023-05-14T18:40:44.681Z,100275.13
2023-05-14T18:43:47.244Z,100258.59
2023-05-14T18:46:50.392Z,100268.50
2023-05-14T18:49:55.974Z,100259.34
2023-05-14T18:52:58.611Z,100255.13
2023-05-14T18:56:01.135Z,100261.59
2023-05-14T18:59:04.418Z,100268.28
2023-05-14T19:02:07.232Z,100264.06
2023-05-14T19:05:09.919Z,100259.47
2023-05-14T19:08:12.786Z,100264.13
2023-05-14T19:11:16.323Z,100251.31
2023-05-14T19:14:18.948Z,100247.28
2023-05-14T19:17:21.712Z,100240.16
2023-05-14T19:20:24.233Z,100243.28
2023-05-14T19:23:26.946Z,100222.63
2023-05-14T19:26:29.651Z,100211.16
2023-05-14T19:29:33.608Z,100218.59
2023-05-14T19:32:37.685Z,100213.66
2023-05-14T19:35:40.644Z,100210.00
2023-05-14T19:38:43.491Z,100210.44
2023-05-14T19:41:46.008Z,100202.19
2023-05-14T19:44:48.574Z,100202.09
2023-05-14T19:47:51.574Z,100204.53
2023-05-14T19:50:54.504Z,100198.84
2023-05-14T19:53:57.130Z,100192.25
2023-05-14T19:56:59.636Z,100184.47
2023-05-14T20:00:02.418Z,100188.38
2023-05-14T20:03:13.699Z,100187.13
2023-05-14T20:06:17.537Z,100191.25
2023-05-14T20:09:20.180Z,100181.66
2023-05-14T20:12:22.898Z,100177.75
2023-05-14T20:15:26.387Z,100169.44
2023-05-14T20:18:29.476Z,100170.34
2023-05-14T20:21:32.102Z,100166.56
2023-05-14T20:24:34.855Z,100156.63
2023-05-14T20:27:37.472Z,100145.16
2023-05-14T20:30:40.808Z,100139.69
2023-05-14T20:33:43.601Z,100133.66
2023-05-14T20:36:46.045Z,100132.44
2023-05-14T20:39:48.640Z,100131.00
2023-05-14T20:42:51.177Z,100129.75
2023-05-14T20:45:53.900Z,100127.53
2023-05-14T20:48:57.201Z,100125.47
2023-05-14T20:51:59.824Z,100139.94
2023-05-14T20:55:02.580Z,100127.41
2023-05-14T20:58:05.088Z,100106.13
2023-05-14T21:01:08.199Z,100103.59
2023-05-14T21:04:11.017Z,100098.81
2023-05-14T21:07:13.531Z,100096.47
2023-05-14T21:10:17.116Z,100080.75
2023-05-14T21:13:19.586Z,100086.22
2023-05-14T21:16:22.222Z,100091.63
2023-05-14T21:19:25.061Z,100080.94
2023-05-14T21:22:27.722Z,100076.56
2023-05-14T21:25:30.419Z,100074.34
2023-05-14T21:28:32.918Z,100069.25
2023-05-14T21:31:35.623Z,100068.78
2023-05-14T21:34:38.227Z,100067.75
2023-05-14T21:37:40.952Z,100070.81
2023-05-14T21:40:43.487Z,100066.44
2023-05-14T21:43:45.870Z,100062.97
2023-05-14T21:46:48.987Z,100062.69
2023-05-14T21:49:51.639Z,100063.66
2023-05-14T21:52:54.254Z,100065.09
2023-05-14T21:55:56.926Z,100058.75
2023-05-14T21:58:59.561Z,100059.06
2023-05-14T22:05:08.051Z,100055.94
2023-05-14T22:08:11.074Z,100047.59
2023-05-14T22:11:13.978Z,100051.50
2023-05-14T22:14:16.437Z,100052.72
2023-05-14T22:17:18.930Z,100040.69
2023-05-14T22:20:22.374Z,100032.78
2023-05-14T22:23:24.762Z,100032.91
2023-05-14T22:26:27.233Z,100025.97
2023-05-14T22:29:29.662Z,100022.63
2023-05-14T22:32:32.300Z,100014.25
2023-05-14T22:35:35.194Z,100017.19
2023-05-14T22:38:38.263Z,100016.84
2023-05-14T22:41:40.803Z,100003.34
2023-05-14T22:44:43.175Z,100004.78
2023-05-14T22:47:45.796Z,100003.69
2023-05-14T22:50:48.398Z,99996.09
2023-05-14T22:53:51.121Z,99998.44
2023-05-14T22:56:53.677Z,99988.75
2023-05-14T22:59:56.445Z,99986.63
2023-05-14T23:02:59.170Z,99992.66
2023-05-14T23:06:01.724Z,99990.53
2023-05-14T23:09:04.142Z,99993.75
2023-05-14T23:12:07.089Z,99984.28
2023-05-14T23:15:09.807Z,99979.59
2023-05-14T23:18:12.620Z,99985.28
2023-05-14T23:21:15.788Z,99985.84
2023-05-14T23:24:18.309Z,99970.47
2023-05-14T23:27:20.948Z,99967.34
2023-05-14T23:30:23.426Z,99969.22
2023-05-14T23:33:26.541Z,99963.78
2023-05-14T23:36:31.415Z,99973.59
2023-05-14T23:39:33.858Z,99975.81
2023-05-14T23:42:36.414Z,99982.50
2023-05-14T23:45:39.023Z,99985.19
2023-05-14T23:48:42.214Z,99979.81
2023-05-14T23:51:44.625Z,99984.72
2023-05-14T23:54:47.532Z,99978.59
2023-05-14T23:57:50.043Z,99975.69
